sensor_id;sensor_type;location;lat;lon;timestamp;temperature;humidity
20487;DHT22;10402;49.012;8.370;2024-01-07T00:01:14;6.70;96.30
20487;DHT22;10402;49.012;8.370;2024-01-07T00:03:40;6.70;96.20
20487;DHT22;10402;49.012;8.370;2024-01-07T00:06:07;6.70;96.10
20487;DHT22;10402;49.012;8.370;2024-01-07T00:08:33;6.60;96.00
20487;DHT22;10402;49.012;8.370;2024-01-07T00:10:58;6.60;96.20
20487;DHT22;10402;49.012;8.370;2024-01-07T00:13:24;6.60;96.30
20487;DHT22;10402;49.012;8.370;2024-01-07T00:15:49;6.50;96.30
20487;DHT22;10402;49.012;8.370;2024-01-07T00:18:15;6.60;96.30
20487;DHT22;10402;49.012;8.370;2024-01-07T00:20:41;6.50;96.30
20487;DHT22;10402;49.012;8.370;2024-01-07T00:23:06;6.50;96.30
20487;DHT22;10402;49.012;8.370;2024-01-07T00:25:32;6.50;96.30
20487;DHT22;10402;49.012;8.370;2024-01-07T00:27:57;6.50;96.30
20487;DHT22;10402;49.012;8.370;2024-01-07T00:30:23;6.50;96.30
20487;DHT22;10402;49.012;8.370;2024-01-07T00:32:48;6.50;96.60
20487;DHT22;10402;49.012;8.370;2024-01-07T00:35:16;6.60;96.60
20487;DHT22;10402;49.012;8.370;2024-01-07T00:37:42;6.70;96.40
20487;DHT22;10402;49.012;8.370;2024-01-07T00:40:08;6.60;96.30
20487;DHT22;10402;49.012;8.370;2024-01-07T00:42:33;6.60;96.30
20487;DHT22;10402;49.012;8.370;2024-01-07T00:44:59;6.60;96.30
20487;DHT22;10402;49.012;8.370;2024-01-07T00:47:24;6.60;96.40
20487;DHT22;10402;49.012;8.370;2024-01-07T00:49:50;6.50;96.30
20487;DHT22;10402;49.012;8.370;2024-01-07T00:52:15;6.60;96.40
20487;DHT22;10402;49.012;8.370;2024-01-07T00:54:41;6.60;96.30
20487;DHT22;10402;49.012;8.370;2024-01-07T00:57:07;6.60;96.50
20487;DHT22;10402;49.012;8.370;2024-01-07T00:59:32;6.60;96.90
20487;DHT22;10402;49.012;8.370;2024-01-07T01:01:58;6.70;96.60
20487;DHT22;10402;49.012;8.370;2024-01-07T01:04:23;6.70;96.40
20487;DHT22;10402;49.012;8.370;2024-01-07T01:06:49;6.60;96.40
20487;DHT22;10402;49.012;8.370;2024-01-07T01:09:14;6.60;96.40
20487;DHT22;10402;49.012;8.370;2024-01-07T01:11:40;6.60;96.40
20487;DHT22;10402;49.012;8.370;2024-01-07T01:14:05;6.60;96.30
20487;DHT22;10402;49.012;8.370;2024-01-07T01:16:31;6.60;96.30
20487;DHT22;10402;49.012;8.370;2024-01-07T01:18:56;6.50;96.10
20487;DHT22;10402;49.012;8.370;2024-01-07T01:21:22;6.50;96.10
20487;DHT22;10402;49.012;8.370;2024-01-07T01:23:48;6.40;96.30
20487;DHT22;10402;49.012;8.370;2024-01-07T01:26:13;6.40;96.50
20487;DHT22;10402;49.012;8.370;2024-01-07T01:28:39;6.50;96.40
20487;DHT22;10402;49.012;8.370;2024-01-07T01:31:04;6.50;96.30
20487;DHT22;10402;49.012;8.370;2024-01-07T01:33:30;6.50;96.30
20487;DHT22;10402;49.012;8.370;2024-01-07T01:35:56;6.50;96.30
20487;DHT22;10402;49.012;8.370;2024-01-07T01:38:21;6.50;96.30
20487;DHT22;10402;49.012;8.370;2024-01-07T01:40:53;6.50;96.30
20487;DHT22;10402;49.012;8.370;2024-01-07T01:43:28;6.50;96.30
20487;DHT22;10402;49.012;8.370;2024-01-07T01:45:55;6.50;96.30
20487;DHT22;10402;49.012;8.370;2024-01-07T01:48:25;6.50;96.50
20487;DHT22;10402;49.012;8.370;2024-01-07T01:50:52;6.50;96.30
20487;DHT22;10402;49.012;8.370;2024-01-07T01:53:19;6.50;96.50
20487;DHT22;10402;49.012;8.370;2024-01-07T01:55:45;6.50;96.30
20487;DHT22;10402;49.012;8.370;2024-01-07T01:58:13;6.50;96.30
20487;DHT22;10402;49.012;8.370;2024-01-07T02:00:39;6.50;96.30
20487;DHT22;10402;49.012;8.370;2024-01-07T02:03:05;6.50;96.30
20487;DHT22;10402;49.012;8.370;2024-01-07T02:05:30;6.50;96.30
20487;DHT22;10402;49.012;8.370;2024-01-07T02:07:56;6.50;96.30
20487;DHT22;10402;49.012;8.370;2024-01-07T02:10:22;6.40;96.30
20487;DHT22;10402;49.012;8.370;2024-01-07T02:12:48;6.40;96.30
20487;DHT22;10402;49.012;8.370;2024-01-07T02:15:14;6.50;96.30
20487;DHT22;10402;49.012;8.370;2024-01-07T02:17:40;6.50;96.40
20487;DHT22;10402;49.012;8.370;2024-01-07T02:20:06;6.50;96.30
20487;DHT22;10402;49.012;8.370;2024-01-07T02:22:32;6.50;96.30
20487;DHT22;10402;49.012;8.370;2024-01-07T02:24:57;6.40;96.30
20487;DHT22;10402;49.012;8.370;2024-01-07T02:27:23;6.40;96.30
20487;DHT22;10402;49.012;8.370;2024-01-07T02:29:48;6.40;96.30
20487;DHT22;10402;49.012;8.370;2024-01-07T02:32:14;6.30;96.20
20487;DHT22;10402;49.012;8.370;2024-01-07T02:34:39;6.30;96.50
20487;DHT22;10402;49.012;8.370;2024-01-07T02:37:05;6.40;96.50
20487;DHT22;10402;49.012;8.370;2024-01-07T02:39:30;6.30;96.40
20487;DHT22;10402;49.012;8.370;2024-01-07T02:41:57;6.30;96.50
20487;DHT22;10402;49.012;8.370;2024-01-07T02:44:22;6.30;96.60
20487;DHT22;10402;49.012;8.370;2024-01-07T02:46:48;6.30;96.50
20487;DHT22;10402;49.012;8.370;2024-01-07T02:49:14;6.20;96.50
20487;DHT22;10402;49.012;8.370;2024-01-07T02:51:39;6.20;96.60
20487;DHT22;10402;49.012;8.370;2024-01-07T02:54:05;6.30;96.70
20487;DHT22;10402;49.012;8.370;2024-01-07T02:56:30;6.20;96.50
20487;DHT22;10402;49.012;8.370;2024-01-07T02:58:56;6.30;96.60
20487;DHT22;10402;49.012;8.370;2024-01-07T03:01:22;6.30;96.60
20487;DHT22;10402;49.012;8.370;2024-01-07T03:03:48;6.20;96.50
20487;DHT22;10402;49.012;8.370;2024-01-07T03:06:14;6.20;96.30
20487;DHT22;10402;49.012;8.370;2024-01-07T03:08:39;6.10;96.50
20487;DHT22;10402;49.012;8.370;2024-01-07T03:11:05;6.10;96.60
20487;DHT22;10402;49.012;8.370;2024-01-07T03:13:32;6.10;96.70
20487;DHT22;10402;49.012;8.370;2024-01-07T03:15:57;6.20;96.70
20487;DHT22;10402;49.012;8.370;2024-01-07T03:18:23;6.10;96.60
20487;DHT22;10402;49.012;8.370;2024-01-07T03:20:49;6.10;96.40
20487;DHT22;10402;49.012;8.370;2024-01-07T03:23:14;6.10;96.60
20487;DHT22;10402;49.012;8.370;2024-01-07T03:25:40;6.10;96.60
20487;DHT22;10402;49.012;8.370;2024-01-07T03:28:05;6.10;96.60
20487;DHT22;10402;49.012;8.370;2024-01-07T03:30:31;6.10;96.60
20487;DHT22;10402;49.012;8.370;2024-01-07T03:32:56;6.10;96.70
20487;DHT22;10402;49.012;8.370;2024-01-07T03:35:22;6.10;96.70
20487;DHT22;10402;49.012;8.370;2024-01-07T03:37:49;6.10;96.70
20487;DHT22;10402;49.012;8.370;2024-01-07T03:40:15;6.10;96.50
20487;DHT22;10402;49.012;8.370;2024-01-07T03:42:41;6.00;96.60
20487;DHT22;10402;49.012;8.370;2024-01-07T03:45:06;6.00;96.70
20487;DHT22;10402;49.012;8.370;2024-01-07T03:47:32;6.00;96.80
20487;DHT22;10402;49.012;8.370;2024-01-07T03:49:57;6.00;96.80
20487;DHT22;10402;49.012;8.370;2024-01-07T03:52:23;6.00;96.80
20487;DHT22;10402;49.012;8.370;2024-01-07T03:54:49;6.00;96.80
20487;DHT22;10402;49.012;8.370;2024-01-07T03:57:14;5.90;96.90
20487;DHT22;10402;49.012;8.370;2024-01-07T03:59:40;6.00;96.90
20487;DHT22;10402;49.012;8.370;2024-01-07T04:02:06;5.90;97.20
20487;DHT22;10402;49.012;8.370;2024-01-07T04:04:31;6.00;96.90
20487;DHT22;10402;49.012;8.370;2024-01-07T04:06:57;6.00;96.90
20487;DHT22;10402;49.012;8.370;2024-01-07T04:09:23;6.00;97.10
20487;DHT22;10402;49.012;8.370;2024-01-07T04:11:48;6.00;97.00
20487;DHT22;10402;49.012;8.370;2024-01-07T04:14:15;6.10;97.10
20487;DHT22;10402;49.012;8.370;2024-01-07T04:16:41;6.10;96.90
20487;DHT22;10402;49.012;8.370;2024-01-07T04:19:06;6.10;96.70
20487;DHT22;10402;49.012;8.370;2024-01-07T04:21:32;6.00;96.60
20487;DHT22;10402;49.012;8.370;2024-01-07T04:23:57;6.00;96.70
20487;DHT22;10402;49.012;8.370;2024-01-07T04:26:23;6.00;96.70
20487;DHT22;10402;49.012;8.370;2024-01-07T04:28:48;6.00;96.70
20487;DHT22;10402;49.012;8.370;2024-01-07T04:31:14;6.00;96.80
20487;DHT22;10402;49.012;8.370;2024-01-07T04:33:40;6.00;96.80
20487;DHT22;10402;49.012;8.370;2024-01-07T04:36:06;5.90;96.70
20487;DHT22;10402;49.012;8.370;2024-01-07T04:38:31;5.90;96.80
20487;DHT22;10402;49.012;8.370;2024-01-07T04:40:57;5.90;96.80
20487;DHT22;10402;49.012;8.370;2024-01-07T04:43:22;5.90;96.80
20487;DHT22;10402;49.012;8.370;2024-01-07T04:45:48;5.90;96.90
20487;DHT22;10402;49.012;8.370;2024-01-07T04:48:14;5.90;96.90
20487;DHT22;10402;49.012;8.370;2024-01-07T04:50:42;5.90;97.00
20487;DHT22;10402;49.012;8.370;2024-01-07T04:53:09;5.90;96.90
20487;DHT22;10402;49.012;8.370;2024-01-07T04:55:34;5.90;96.90
20487;DHT22;10402;49.012;8.370;2024-01-07T04:58:01;5.90;97.00
20487;DHT22;10402;49.012;8.370;2024-01-07T05:00:27;5.90;97.00
20487;DHT22;10402;49.012;8.370;2024-01-07T05:02:52;5.90;96.90
20487;DHT22;10402;49.012;8.370;2024-01-07T05:05:18;5.90;96.80
20487;DHT22;10402;49.012;8.370;2024-01-07T05:07:43;5.90;97.00
20487;DHT22;10402;49.012;8.370;2024-01-07T05:10:09;5.90;96.90
20487;DHT22;10402;49.012;8.370;2024-01-07T05:12:35;5.90;96.80
20487;DHT22;10402;49.012;8.370;2024-01-07T05:15:00;6.00;96.90
20487;DHT22;10402;49.012;8.370;2024-01-07T05:17:26;6.00;96.80
20487;DHT22;10402;49.012;8.370;2024-01-07T05:19:51;6.00;96.80
20487;DHT22;10402;49.012;8.370;2024-01-07T05:22:17;5.90;96.80
20487;DHT22;10402;49.012;8.370;2024-01-07T05:24:42;5.90;96.80
20487;DHT22;10402;49.012;8.370;2024-01-07T05:27:09;5.90;97.00
20487;DHT22;10402;49.012;8.370;2024-01-07T05:29:34;5.90;96.90
20487;DHT22;10402;49.012;8.370;2024-01-07T05:32:00;5.90;97.00
20487;DHT22;10402;49.012;8.370;2024-01-07T05:34:26;5.90;96.90
20487;DHT22;10402;49.012;8.370;2024-01-07T05:36:52;5.90;96.90
20487;DHT22;10402;49.012;8.370;2024-01-07T05:39:17;5.80;96.90
20487;DHT22;10402;49.012;8.370;2024-01-07T05:41:43;5.80;97.00
20487;DHT22;10402;49.012;8.370;2024-01-07T05:44:09;5.80;97.10
20487;DHT22;10402;49.012;8.370;2024-01-07T05:46:38;5.80;97.10
20487;DHT22;10402;49.012;8.370;2024-01-07T05:49:04;5.80;97.00
20487;DHT22;10402;49.012;8.370;2024-01-07T05:51:30;5.80;97.10
20487;DHT22;10402;49.012;8.370;2024-01-07T05:53:56;5.80;97.10
20487;DHT22;10402;49.012;8.370;2024-01-07T05:56:21;5.90;97.10
20487;DHT22;10402;49.012;8.370;2024-01-07T05:58:47;5.90;97.10
20487;DHT22;10402;49.012;8.370;2024-01-07T06:01:18;5.90;97.10
20487;DHT22;10402;49.012;8.370;2024-01-07T06:03:44;5.90;97.10
20487;DHT22;10402;49.012;8.370;2024-01-07T06:06:11;6.00;97.00
20487;DHT22;10402;49.012;8.370;2024-01-07T06:08:37;5.90;96.90
20487;DHT22;10402;49.012;8.370;2024-01-07T06:11:03;5.90;97.00
20487;DHT22;10402;49.012;8.370;2024-01-07T06:13:28;6.00;97.00
20487;DHT22;10402;49.012;8.370;2024-01-07T06:15:54;6.00;96.90
20487;DHT22;10402;49.012;8.370;2024-01-07T06:18:19;6.00;96.90
20487;DHT22;10402;49.012;8.370;2024-01-07T06:20:45;6.00;96.90
20487;DHT22;10402;49.012;8.370;2024-01-07T06:23:10;6.00;96.90
20487;DHT22;10402;49.012;8.370;2024-01-07T06:25:36;6.00;96.90
20487;DHT22;10402;49.012;8.370;2024-01-07T06:28:01;6.00;97.00
20487;DHT22;10402;49.012;8.370;2024-01-07T06:30:27;6.00;96.90
20487;DHT22;10402;49.012;8.370;2024-01-07T06:32:52;6.00;96.70
20487;DHT22;10402;49.012;8.370;2024-01-07T06:35:18;6.00;96.80
20487;DHT22;10402;49.012;8.370;2024-01-07T06:37:44;6.00;96.70
20487;DHT22;10402;49.012;8.370;2024-01-07T06:40:10;6.00;96.70
20487;DHT22;10402;49.012;8.370;2024-01-07T06:42:37;5.90;96.70
20487;DHT22;10402;49.012;8.370;2024-01-07T06:45:03;5.90;96.80
20487;DHT22;10402;49.012;8.370;2024-01-07T06:47:29;5.90;96.80
20487;DHT22;10402;49.012;8.370;2024-01-07T06:49:54;5.90;96.80
20487;DHT22;10402;49.012;8.370;2024-01-07T06:52:20;5.90;96.80
20487;DHT22;10402;49.012;8.370;2024-01-07T06:54:46;6.00;96.70
20487;DHT22;10402;49.012;8.370;2024-01-07T06:57:12;6.00;96.80
20487;DHT22;10402;49.012;8.370;2024-01-07T06:59:37;5.90;96.70
20487;DHT22;10402;49.012;8.370;2024-01-07T07:02:03;5.90;96.80
20487;DHT22;10402;49.012;8.370;2024-01-07T07:04:28;6.00;96.90
20487;DHT22;10402;49.012;8.370;2024-01-07T07:06:54;6.00;96.80
20487;DHT22;10402;49.012;8.370;2024-01-07T07:09:19;6.00;96.90
20487;DHT22;10402;49.012;8.370;2024-01-07T07:11:45;6.00;96.80
20487;DHT22;10402;49.012;8.370;2024-01-07T07:14:10;6.00;96.70
20487;DHT22;10402;49.012;8.370;2024-01-07T07:16:36;6.00;96.70
20487;DHT22;10402;49.012;8.370;2024-01-07T07:19:01;6.00;96.70
20487;DHT22;10402;49.012;8.370;2024-01-07T07:21:27;6.00;96.70
20487;DHT22;10402;49.012;8.370;2024-01-07T07:23:53;6.10;96.80
20487;DHT22;10402;49.012;8.370;2024-01-07T07:26:18;6.10;96.70
20487;DHT22;10402;49.012;8.370;2024-01-07T07:28:44;6.10;96.50
20487;DHT22;10402;49.012;8.370;2024-01-07T07:31:11;6.00;96.50
20487;DHT22;10402;49.012;8.370;2024-01-07T07:33:39;6.00;96.60
20487;DHT22;10402;49.012;8.370;2024-01-07T07:36:05;6.00;96.70
20487;DHT22;10402;49.012;8.370;2024-01-07T07:38:30;5.90;96.70
20487;DHT22;10402;49.012;8.370;2024-01-07T07:40:56;6.00;96.90
20487;DHT22;10402;49.012;8.370;2024-01-07T07:43:22;6.00;96.90
20487;DHT22;10402;49.012;8.370;2024-01-07T07:45:47;5.90;96.70
20487;DHT22;10402;49.012;8.370;2024-01-07T07:48:13;6.00;96.90
20487;DHT22;10402;49.012;8.370;2024-01-07T07:50:38;5.90;96.90
20487;DHT22;10402;49.012;8.370;2024-01-07T07:53:05;6.00;96.90
20487;DHT22;10402;49.012;8.370;2024-01-07T07:55:32;6.00;96.90
20487;DHT22;10402;49.012;8.370;2024-01-07T07:57:57;6.00;96.90
20487;DHT22;10402;49.012;8.370;2024-01-07T08:00:23;5.90;96.90
20487;DHT22;10402;49.012;8.370;2024-01-07T08:02:49;6.00;97.10
20487;DHT22;10402;49.012;8.370;2024-01-07T08:05:15;6.00;97.10
20487;DHT22;10402;49.012;8.370;2024-01-07T08:07:41;6.00;97.10
20487;DHT22;10402;49.012;8.370;2024-01-07T08:10:07;6.00;96.90
20487;DHT22;10402;49.012;8.370;2024-01-07T08:12:33;6.00;96.90
20487;DHT22;10402;49.012;8.370;2024-01-07T08:14:58;6.00;97.00
20487;DHT22;10402;49.012;8.370;2024-01-07T08:17:24;6.00;97.00
20487;DHT22;10402;49.012;8.370;2024-01-07T08:19:49;6.00;97.40
20487;DHT22;10402;49.012;8.370;2024-01-07T08:22:15;6.00;97.10
20487;DHT22;10402;49.012;8.370;2024-01-07T08:24:41;6.00;97.10
20487;DHT22;10402;49.012;8.370;2024-01-07T08:27:07;6.10;97.30
20487;DHT22;10402;49.012;8.370;2024-01-07T08:29:33;6.10;97.10
20487;DHT22;10402;49.012;8.370;2024-01-07T08:31:58;6.10;96.90
20487;DHT22;10402;49.012;8.370;2024-01-07T08:34:24;6.00;97.00
20487;DHT22;10402;49.012;8.370;2024-01-07T08:36:49;6.00;97.00
20487;DHT22;10402;49.012;8.370;2024-01-07T08:39:15;6.00;97.20
20487;DHT22;10402;49.012;8.370;2024-01-07T08:41:41;6.00;97.30
20487;DHT22;10402;49.012;8.370;2024-01-07T08:44:06;6.10;97.20
20487;DHT22;10402;49.012;8.370;2024-01-07T08:46:34;6.10;97.30
20487;DHT22;10402;49.012;8.370;2024-01-07T08:48:59;6.10;97.30
20487;DHT22;10402;49.012;8.370;2024-01-07T08:51:25;6.10;97.10
20487;DHT22;10402;49.012;8.370;2024-01-07T08:53:50;6.10;97.10
20487;DHT22;10402;49.012;8.370;2024-01-07T08:56:16;6.10;97.10
20487;DHT22;10402;49.012;8.370;2024-01-07T08:58:42;6.10;97.10
20487;DHT22;10402;49.012;8.370;2024-01-07T09:01:07;6.10;97.20
20487;DHT22;10402;49.012;8.370;2024-01-07T09:03:33;6.10;97.10
20487;DHT22;10402;49.012;8.370;2024-01-07T09:05:59;6.10;97.20
20487;DHT22;10402;49.012;8.370;2024-01-07T09:08:24;6.10;97.30
20487;DHT22;10402;49.012;8.370;2024-01-07T09:10:50;6.10;97.30
20487;DHT22;10402;49.012;8.370;2024-01-07T09:13:16;6.10;97.40
20487;DHT22;10402;49.012;8.370;2024-01-07T09:15:41;6.20;97.40
20487;DHT22;10402;49.012;8.370;2024-01-07T09:18:07;6.20;97.30
20487;DHT22;10402;49.012;8.370;2024-01-07T09:20:32;6.20;97.30
20487;DHT22;10402;49.012;8.370;2024-01-07T09:22:59;6.30;97.20
20487;DHT22;10402;49.012;8.370;2024-01-07T09:25:24;6.20;97.10
20487;DHT22;10402;49.012;8.370;2024-01-07T09:27:51;6.20;97.20
20487;DHT22;10402;49.012;8.370;2024-01-07T09:30:17;6.20;97.10
20487;DHT22;10402;49.012;8.370;2024-01-07T09:32:43;6.20;97.20
20487;DHT22;10402;49.012;8.370;2024-01-07T09:35:09;6.20;97.20
20487;DHT22;10402;49.012;8.370;2024-01-07T09:37:35;6.20;97.10
20487;DHT22;10402;49.012;8.370;2024-01-07T09:40:01;6.20;97.20
20487;DHT22;10402;49.012;8.370;2024-01-07T09:42:27;6.20;97.10
20487;DHT22;10402;49.012;8.370;2024-01-07T09:44:52;6.20;97.10
20487;DHT22;10402;49.012;8.370;2024-01-07T09:47:18;6.20;97.20
20487;DHT22;10402;49.012;8.370;2024-01-07T09:49:45;6.20;97.20
20487;DHT22;10402;49.012;8.370;2024-01-07T09:52:11;6.20;97.20
20487;DHT22;10402;49.012;8.370;2024-01-07T09:54:38;6.20;97.50
20487;DHT22;10402;49.012;8.370;2024-01-07T09:57:06;6.20;97.20
20487;DHT22;10402;49.012;8.370;2024-01-07T09:59:32;6.20;97.20
20487;DHT22;10402;49.012;8.370;2024-01-07T10:01:59;6.30;97.30
20487;DHT22;10402;49.012;8.370;2024-01-07T10:04:25;6.30;97.20
20487;DHT22;10402;49.012;8.370;2024-01-07T10:06:51;6.40;97.10
20487;DHT22;10402;49.012;8.370;2024-01-07T10:09:19;6.40;97.00
20487;DHT22;10402;49.012;8.370;2024-01-07T10:11:45;6.40;96.80
20487;DHT22;10402;49.012;8.370;2024-01-07T10:14:10;6.40;96.80
20487;DHT22;10402;49.012;8.370;2024-01-07T10:16:36;6.40;96.90
20487;DHT22;10402;49.012;8.370;2024-01-07T10:19:02;6.50;96.90
20487;DHT22;10402;49.012;8.370;2024-01-07T10:21:28;6.50;96.70
20487;DHT22;10402;49.012;8.370;2024-01-07T10:24:12;6.50;96.50
20487;DHT22;10402;49.012;8.370;2024-01-07T10:26:41;6.50;96.30
20487;DHT22;10402;49.012;8.370;2024-01-07T10:29:08;6.50;96.30
20487;DHT22;10402;49.012;8.370;2024-01-07T10:31:34;6.50;96.00
20487;DHT22;10402;49.012;8.370;2024-01-07T10:33:59;6.50;95.80
20487;DHT22;10402;49.012;8.370;2024-01-07T10:36:25;6.50;95.60
20487;DHT22;10402;49.012;8.370;2024-01-07T10:38:51;6.50;95.50
20487;DHT22;10402;49.012;8.370;2024-01-07T10:41:18;6.50;95.20
20487;DHT22;10402;49.012;8.370;2024-01-07T10:43:46;6.40;95.10
20487;DHT22;10402;49.012;8.370;2024-01-07T10:46:13;6.40;95.10
20487;DHT22;10402;49.012;8.370;2024-01-07T10:48:59;6.50;95.10
20487;DHT22;10402;49.012;8.370;2024-01-07T10:51:27;6.50;95.20
20487;DHT22;10402;49.012;8.370;2024-01-07T10:53:53;6.50;95.10
20487;DHT22;10402;49.012;8.370;2024-01-07T10:56:23;6.50;95.20
20487;DHT22;10402;49.012;8.370;2024-01-07T10:58:52;6.60;95.20
20487;DHT22;10402;49.012;8.370;2024-01-07T11:01:18;6.60;95.10
20487;DHT22;10402;49.012;8.370;2024-01-07T11:04:08;6.60;95.20
20487;DHT22;10402;49.012;8.370;2024-01-07T11:06:46;6.50;94.90
20487;DHT22;10402;49.012;8.370;2024-01-07T11:09:26;6.40;94.80
20487;DHT22;10402;49.012;8.370;2024-01-07T11:11:55;6.30;94.80
20487;DHT22;10402;49.012;8.370;2024-01-07T11:14:38;6.30;95.00
20487;DHT22;10402;49.012;8.370;2024-01-07T11:17:11;6.40;95.10
20487;DHT22;10402;49.012;8.370;2024-01-07T11:19:37;6.30;94.90
20487;DHT22;10402;49.012;8.370;2024-01-07T11:22:25;6.30;94.60
20487;DHT22;10402;49.012;8.370;2024-01-07T11:24:53;6.30;94.10
20487;DHT22;10402;49.012;8.370;2024-01-07T11:27:20;6.20;93.90
20487;DHT22;10402;49.012;8.370;2024-01-07T11:29:53;6.10;93.80
20487;DHT22;10402;49.012;8.370;2024-01-07T11:32:22;6.10;93.80
20487;DHT22;10402;49.012;8.370;2024-01-07T11:34:48;6.10;94.00
20487;DHT22;10402;49.012;8.370;2024-01-07T11:37:17;6.10;92.40
20487;DHT22;10402;49.012;8.370;2024-01-07T11:39:44;6.00;91.30
20487;DHT22;10402;49.012;8.370;2024-01-07T11:42:10;6.00;91.10
20487;DHT22;10402;49.012;8.370;2024-01-07T11:44:37;6.00;91.10
20487;DHT22;10402;49.012;8.370;2024-01-07T11:47:09;5.90;90.20
20487;DHT22;10402;49.012;8.370;2024-01-07T11:49:35;5.80;89.70
20487;DHT22;10402;49.012;8.370;2024-01-07T11:52:01;5.80;89.70
20487;DHT22;10402;49.012;8.370;2024-01-07T11:54:28;5.90;89.40
20487;DHT22;10402;49.012;8.370;2024-01-07T11:56:55;5.80;88.60
20487;DHT22;10402;49.012;8.370;2024-01-07T11:59:20;5.80;88.80
20487;DHT22;10402;49.012;8.370;2024-01-07T12:01:46;5.90;88.80
20487;DHT22;10402;49.012;8.370;2024-01-07T12:04:11;5.90;88.60
20487;DHT22;10402;49.012;8.370;2024-01-07T12:06:38;5.90;89.00
20487;DHT22;10402;49.012;8.370;2024-01-07T12:09:03;5.90;88.30
20487;DHT22;10402;49.012;8.370;2024-01-07T12:11:29;5.90;88.50
20487;DHT22;10402;49.012;8.370;2024-01-07T12:13:55;5.90;88.60
20487;DHT22;10402;49.012;8.370;2024-01-07T12:16:21;5.90;88.60
20487;DHT22;10402;49.012;8.370;2024-01-07T12:18:47;5.90;88.30
20487;DHT22;10402;49.012;8.370;2024-01-07T12:21:19;5.90;87.90
20487;DHT22;10402;49.012;8.370;2024-01-07T12:23:48;5.90;88.20
20487;DHT22;10402;49.012;8.370;2024-01-07T12:26:16;5.90;87.50
20487;DHT22;10402;49.012;8.370;2024-01-07T12:28:42;5.90;87.80
20487;DHT22;10402;49.012;8.370;2024-01-07T12:31:09;5.90;87.40
20487;DHT22;10402;49.012;8.370;2024-01-07T12:33:37;5.90;87.40
20487;DHT22;10402;49.012;8.370;2024-01-07T12:36:03;5.90;87.40
20487;DHT22;10402;49.012;8.370;2024-01-07T12:38:29;5.90;87.50
20487;DHT22;10402;49.012;8.370;2024-01-07T12:40:55;5.90;87.70
20487;DHT22;10402;49.012;8.370;2024-01-07T12:43:21;5.90;88.10
20487;DHT22;10402;49.012;8.370;2024-01-07T12:45:48;5.90;88.80
20487;DHT22;10402;49.012;8.370;2024-01-07T12:48:14;5.90;89.40
20487;DHT22;10402;49.012;8.370;2024-01-07T12:50:39;5.90;89.60
20487;DHT22;10402;49.012;8.370;2024-01-07T12:53:05;5.90;89.70
20487;DHT22;10402;49.012;8.370;2024-01-07T12:55:31;5.90;90.00
20487;DHT22;10402;49.012;8.370;2024-01-07T12:57:56;5.90;90.00
20487;DHT22;10402;49.012;8.370;2024-01-07T13:00:27;5.80;89.70
20487;DHT22;10402;49.012;8.370;2024-01-07T13:02:54;5.80;89.70
20487;DHT22;10402;49.012;8.370;2024-01-07T13:05:20;5.80;89.70
20487;DHT22;10402;49.012;8.370;2024-01-07T13:07:46;5.70;89.90
20487;DHT22;10402;49.012;8.370;2024-01-07T13:10:12;5.70;89.40
20487;DHT22;10402;49.012;8.370;2024-01-07T13:12:39;5.70;88.70
20487;DHT22;10402;49.012;8.370;2024-01-07T13:15:05;5.60;88.70
20487;DHT22;10402;49.012;8.370;2024-01-07T13:17:30;5.60;87.80
20487;DHT22;10402;49.012;8.370;2024-01-07T13:19:58;5.60;88.20
20487;DHT22;10402;49.012;8.370;2024-01-07T13:22:24;5.50;87.30
20487;DHT22;10402;49.012;8.370;2024-01-07T13:24:49;5.50;87.50
20487;DHT22;10402;49.012;8.370;2024-01-07T13:27:15;5.40;87.80
20487;DHT22;10402;49.012;8.370;2024-01-07T13:29:43;5.40;87.50
20487;DHT22;10402;49.012;8.370;2024-01-07T13:32:11;5.40;87.30
20487;DHT22;10402;49.012;8.370;2024-01-07T13:34:36;5.40;87.50
20487;DHT22;10402;49.012;8.370;2024-01-07T13:37:02;5.40;88.00
20487;DHT22;10402;49.012;8.370;2024-01-07T13:39:28;5.50;88.30
20487;DHT22;10402;49.012;8.370;2024-01-07T13:41:55;5.50;88.10
20487;DHT22;10402;49.012;8.370;2024-01-07T13:44:21;5.50;87.40
20487;DHT22;10402;49.012;8.370;2024-01-07T13:46:47;5.40;87.20
20487;DHT22;10402;49.012;8.370;2024-01-07T13:49:13;5.40;87.70
20487;DHT22;10402;49.012;8.370;2024-01-07T13:51:42;5.40;87.60
20487;DHT22;10402;49.012;8.370;2024-01-07T13:56:49;5.40;88.00
20487;DHT22;10402;49.012;8.370;2024-01-07T13:59:16;5.40;87.60
20487;DHT22;10402;49.012;8.370;2024-01-07T14:01:43;5.40;87.30
20487;DHT22;10402;49.012;8.370;2024-01-07T14:04:08;5.40;87.00
20487;DHT22;10402;49.012;8.370;2024-01-07T14:06:34;5.40;86.70
20487;DHT22;10402;49.012;8.370;2024-01-07T14:09:00;5.40;86.70
20487;DHT22;10402;49.012;8.370;2024-01-07T14:11:25;5.30;87.30
20487;DHT22;10402;49.012;8.370;2024-01-07T14:13:53;5.30;86.90
20487;DHT22;10402;49.012;8.370;2024-01-07T14:16:18;5.30;86.70
20487;DHT22;10402;49.012;8.370;2024-01-07T14:18:44;5.30;86.80
20487;DHT22;10402;49.012;8.370;2024-01-07T14:21:10;5.30;86.80
20487;DHT22;10402;49.012;8.370;2024-01-07T14:23:36;5.30;86.90
20487;DHT22;10402;49.012;8.370;2024-01-07T14:26:02;5.30;86.70
20487;DHT22;10402;49.012;8.370;2024-01-07T14:28:28;5.20;86.30
20487;DHT22;10402;49.012;8.370;2024-01-07T14:30:54;5.20;86.60
20487;DHT22;10402;49.012;8.370;2024-01-07T14:33:19;5.20;86.20
20487;DHT22;10402;49.012;8.370;2024-01-07T14:35:45;5.20;86.50
20487;DHT22;10402;49.012;8.370;2024-01-07T14:38:10;5.10;85.90
20487;DHT22;10402;49.012;8.370;2024-01-07T14:40:36;5.10;85.70
20487;DHT22;10402;49.012;8.370;2024-01-07T14:43:02;5.10;85.80
20487;DHT22;10402;49.012;8.370;2024-01-07T14:45:27;5.10;86.10
20487;DHT22;10402;49.012;8.370;2024-01-07T14:47:53;5.10;85.70
20487;DHT22;10402;49.012;8.370;2024-01-07T14:50:20;5.10;85.90
20487;DHT22;10402;49.012;8.370;2024-01-07T14:52:46;5.10;85.90
20487;DHT22;10402;49.012;8.370;2024-01-07T14:55:12;5.10;86.20
20487;DHT22;10402;49.012;8.370;2024-01-07T14:57:41;5.10;86.10
20487;DHT22;10402;49.012;8.370;2024-01-07T15:00:07;5.10;86.10
20487;DHT22;10402;49.012;8.370;2024-01-07T15:02:34;5.20;86.30
20487;DHT22;10402;49.012;8.370;2024-01-07T15:05:00;5.20;86.50
20487;DHT22;10402;49.012;8.370;2024-01-07T15:07:26;5.20;86.30
20487;DHT22;10402;49.012;8.370;2024-01-07T15:09:51;5.10;86.00
20487;DHT22;10402;49.012;8.370;2024-01-07T15:12:17;5.10;86.00
20487;DHT22;10402;49.012;8.370;2024-01-07T15:14:44;5.10;85.10
20487;DHT22;10402;49.012;8.370;2024-01-07T15:17:09;5.00;85.10
20487;DHT22;10402;49.012;8.370;2024-01-07T15:19:35;5.00;84.70
20487;DHT22;10402;49.012;8.370;2024-01-07T15:22:00;5.00;84.80
20487;DHT22;10402;49.012;8.370;2024-01-07T15:24:27;4.90;83.90
20487;DHT22;10402;49.012;8.370;2024-01-07T15:26:52;4.90;84.00
20487;DHT22;10402;49.012;8.370;2024-01-07T15:29:18;4.80;84.10
20487;DHT22;10402;49.012;8.370;2024-01-07T15:31:45;4.70;84.00
20487;DHT22;10402;49.012;8.370;2024-01-07T15:34:10;4.70;84.10
20487;DHT22;10402;49.012;8.370;2024-01-07T15:36:36;4.70;83.70
20487;DHT22;10402;49.012;8.370;2024-01-07T15:39:03;4.60;83.10
20487;DHT22;10402;49.012;8.370;2024-01-07T15:41:28;4.60;83.40